createdAt,value
2022-11-30T00:00:48.363Z,-8.20
2022-11-30T00:02:54.060Z,-8.18
2022-11-30T00:04:56.749Z,-8.15
2022-11-30T00:06:59.483Z,-8.06
2022-11-30T00:09:02.122Z,-8.06
2022-11-30T00:11:11.751Z,-8.08
2022-11-30T00:13:14.344Z,-8.00
2022-11-30T00:15:17.760Z,-7.98
2022-11-30T00:17:20.720Z,-7.91
2022-11-30T00:19:23.310Z,-7.88
2022-11-30T00:21:25.940Z,-7.87
2022-11-30T00:23:39.926Z,-7.90
2022-11-30T00:25:42.512Z,-7.85
2022-11-30T00:27:45.106Z,-7.80
2022-11-30T00:29:47.697Z,-7.84
2022-11-30T00:31:50.479Z,-7.75
2022-11-30T00:33:53.089Z,-7.74
2022-11-30T00:35:57.319Z,-7.70
2022-11-30T00:38:02.785Z,-7.70
2022-11-30T00:40:06.663Z,-7.73
2022-11-30T00:42:10.197Z,-7.72
2022-11-30T00:44:12.880Z,-7.80
2022-11-30T00:46:15.599Z,-7.88
2022-11-30T00:48:18.175Z,-8.02
2022-11-30T00:50:20.804Z,-8.17
2022-11-30T00:52:23.553Z,-8.16
2022-11-30T00:54:26.099Z,-8.20
2022-11-30T00:56:28.726Z,-8.21
2022-11-30T00:58:31.255Z,-8.17
2022-11-30T01:00:34.021Z,-8.12
2022-11-30T01:02:36.648Z,-8.11
2022-11-30T01:04:39.302Z,-8.08
2022-11-30T01:06:42.089Z,-8.05
2022-11-30T01:08:44.703Z,-8.05
2022-11-30T01:10:51.109Z,-8.12
2022-11-30T01:12:54.528Z,-8.11
2022-11-30T01:14:57.040Z,-8.15
2022-11-30T01:16:59.624Z,-8.22
2022-11-30T01:19:04.397Z,-8.14
2022-11-30T01:21:13.555Z,-8.11
2022-11-30T01:23:16.202Z,-8.12
2022-11-30T01:25:18.764Z,-8.07
2022-11-30T01:27:21.355Z,-8.05
2022-11-30T01:29:24.018Z,-8.05
2022-11-30T01:31:26.652Z,-8.01
2022-11-30T01:33:29.581Z,-8.06
2022-11-30T01:35:32.241Z,-8.00
2022-11-30T01:37:35.302Z,-7.97
2022-11-30T01:39:37.965Z,-7.99
2022-11-30T01:41:40.854Z,-8.05
2022-11-30T01:43:49.910Z,-8.18
2022-11-30T01:45:52.596Z,-8.14
2022-11-30T01:47:57.584Z,-8.14
2022-11-30T01:50:09.770Z,-8.11
2022-11-30T01:52:24.480Z,-8.05
2022-11-30T01:54:33.020Z,-8.04
2022-11-30T01:56:37.394Z,-8.03
2022-11-30T01:58:40.037Z,-8.02
2022-11-30T02:00:47.219Z,-8.08
2022-11-30T02:03:11.501Z,-8.10
2022-11-30T02:05:15.463Z,-8.05
2022-11-30T02:07:18.223Z,-8.26
2022-11-30T02:09:22.299Z,-8.26
2022-11-30T02:11:28.868Z,-8.33
2022-11-30T02:13:34.399Z,-8.32
2022-11-30T02:15:53.167Z,-8.40
2022-11-30T02:18:10.479Z,-8.61
2022-11-30T02:20:21.997Z,-8.58
2022-11-30T02:22:46.427Z,-8.56
2022-11-30T02:24:49.359Z,-8.50
2022-11-30T02:27:15.401Z,-8.58
2022-11-30T02:29:18.195Z,-8.63
2022-11-30T02:31:26.992Z,-8.64
2022-11-30T02:33:32.513Z,-8.60
2022-11-30T02:35:39.102Z,-8.59
2022-11-30T02:37:43.469Z,-8.62
2022-11-30T02:39:46.132Z,-8.68
2022-11-30T02:41:48.753Z,-8.72
2022-11-30T02:43:52.199Z,-8.73
2022-11-30T02:46:09.941Z,-8.63
2022-11-30T02:48:18.769Z,-8.69
2022-11-30T02:51:10.941Z,-8.78
2022-11-30T02:53:13.768Z,-8.76
2022-11-30T02:55:18.945Z,-8.83
2022-11-30T02:57:21.583Z,-8.84
2022-11-30T02:59:24.300Z,-8.81
2022-11-30T03:01:27.065Z,-8.71
2022-11-30T03:03:29.765Z,-8.66
2022-11-30T03:05:32.909Z,-8.79
2022-11-30T03:07:35.778Z,-8.81
2022-11-30T03:09:38.431Z,-8.85
2022-11-30T03:11:41.007Z,-8.78
2022-11-30T03:13:43.619Z,-8.71
2022-11-30T03:15:46.331Z,-8.65
2022-11-30T03:17:48.946Z,-8.59
2022-11-30T03:19:51.581Z,-8.67
2022-11-30T03:21:54.135Z,-8.80
2022-11-30T03:23:56.813Z,-8.76
2022-11-30T03:25:59.973Z,-8.77
2022-11-30T03:28:02.682Z,-8.76
2022-11-30T03:30:06.062Z,-8.72
2022-11-30T03:32:08.890Z,-8.74
2022-11-30T03:34:11.457Z,-8.69
2022-11-30T03:36:14.441Z,-8.65
2022-11-30T03:38:17.031Z,-8.63
2022-11-30T03:40:20.119Z,-8.57
2022-11-30T03:42:22.801Z,-8.58
2022-11-30T03:44:25.493Z,-8.61
2022-11-30T03:46:28.133Z,-8.57
2022-11-30T03:48:31.810Z,-8.61
2022-11-30T03:50:34.451Z,-8.62
2022-11-30T03:52:37.052Z,-8.58
2022-11-30T03:54:39.678Z,-8.55
2022-11-30T03:56:42.221Z,-8.55
2022-11-30T03:58:44.875Z,-8.62
2022-11-30T04:00:47.768Z,-8.66
2022-11-30T04:02:50.415Z,-8.64
2022-11-30T04:04:53.328Z,-8.60
2022-11-30T04:06:56.026Z,-8.60
2022-11-30T04:08:58.605Z,-8.60
2022-11-30T04:11:02.401Z,-8.64
2022-11-30T04:13:05.017Z,-8.64
2022-11-30T04:15:08.357Z,-8.63
2022-11-30T04:17:11.016Z,-8.68
2022-11-30T04:19:13.540Z,-8.78
2022-11-30T04:21:16.091Z,-8.75
2022-11-30T04:23:18.767Z,-8.77
2022-11-30T04:25:21.395Z,-8.78
2022-11-30T04:27:23.936Z,-8.79
2022-11-30T04:29:26.508Z,-8.79
2022-11-30T04:31:29.103Z,-8.87
2022-11-30T04:33:32.026Z,-8.90
2022-11-30T04:35:38.557Z,-9.03
2022-11-30T04:37:41.202Z,-9.16
2022-11-30T04:39:43.816Z,-9.25
2022-11-30T04:41:46.452Z,-9.24
2022-11-30T04:43:49.150Z,-9.16
2022-11-30T04:45:51.941Z,-9.14
2022-11-30T04:47:54.576Z,-9.08
2022-11-30T04:49:57.164Z,-9.17
2022-11-30T04:51:59.690Z,-9.26
2022-11-30T04:54:02.411Z,-9.27
2022-11-30T04:56:09.955Z,-9.33
2022-11-30T04:58:12.653Z,-9.36
2022-11-30T05:00:17.923Z,-9.30
2022-11-30T05:02:20.533Z,-9.31
2022-11-30T05:04:23.180Z,-9.35
2022-11-30T05:06:26.750Z,-9.36
2022-11-30T05:08:29.424Z,-9.37
2022-11-30T05:10:34.014Z,-9.38
2022-11-30T05:12:36.831Z,-9.40
2022-11-30T05:14:39.344Z,-9.39
2022-11-30T05:16:41.956Z,-9.33
2022-11-30T05:18:44.606Z,-9.35
2022-11-30T05:20:51.584Z,-9.37
2022-11-30T05:22:54.099Z,-9.43
2022-11-30T05:24:56.637Z,-9.56
2022-11-30T05:27:00.224Z,-9.50
2022-11-30T05:29:06.640Z,-9.54
2022-11-30T05:31:09.418Z,-9.54
2022-11-30T05:33:12.500Z,-9.55
2022-11-30T05:35:15.138Z,-9.60
2022-11-30T05:37:17.763Z,-9.55
2022-11-30T05:39:20.362Z,-9.48
2022-11-30T05:41:23.110Z,-9.44
2022-11-30T05:43:25.723Z,-9.34
2022-11-30T05:45:28.975Z,-9.38
2022-11-30T05:47:31.555Z,-9.38
2022-11-30T05:49:34.226Z,-9.29
2022-11-30T05:51:36.790Z,-9.29
2022-11-30T05:53:39.917Z,-9.41
2022-11-30T05:55:42.533Z,-9.40
2022-11-30T05:57:45.075Z,-9.25
2022-11-30T05:59:47.678Z,-9.11
2022-11-30T06:01:53.112Z,-9.04
2022-11-30T06:03:56.434Z,-9.00
2022-11-30T06:05:59.071Z,-8.91
2022-11-30T06:08:01.785Z,-8.85
2022-11-30T06:10:05.259Z,-8.89
2022-11-30T06:12:08.250Z,-8.90
2022-11-30T06:14:10.852Z,-8.97
2022-11-30T06:16:13.532Z,-8.91
2022-11-30T06:18:16.138Z,-8.77
2022-11-30T06:20:18.764Z,-8.76
2022-11-30T06:22:21.692Z,-8.76
2022-11-30T06:24:24.291Z,-8.72
2022-11-30T06:26:26.861Z,-8.87
2022-11-30T06:28:29.678Z,-8.97
2022-11-30T06:30:32.270Z,-8.96
2022-11-30T06:32:34.826Z,-8.87
2022-11-30T06:34:37.756Z,-8.76
2022-11-30T06:36:40.284Z,-8.68
2022-11-30T06:38:42.861Z,-8.64
2022-11-30T06:40:45.600Z,-8.64
2022-11-30T06:42:48.495Z,-8.53
2022-11-30T06:44:51.244Z,-8.41
2022-11-30T06:46:54.099Z,-8.36
2022-11-30T06:48:56.904Z,-8.42
2022-11-30T06:51:00.740Z,-8.42
2022-11-30T06:53:04.159Z,-8.54
2022-11-30T06:55:08.462Z,-8.56
2022-11-30T06:57:11.911Z,-8.67
2022-11-30T06:59:14.964Z,-8.85
2022-11-30T07:01:17.763Z,-9.02
2022-11-30T07:03:20.432Z,-9.05
2022-11-30T07:05:23.407Z,-8.99
2022-11-30T07:07:31.247Z,-8.89
2022-11-30T07:09:35.850Z,-8.90
2022-11-30T07:11:38.545Z,-8.91
2022-11-30T07:13:41.613Z,-8.89
2022-11-30T07:15:46.612Z,-8.80
2022-11-30T07:17:49.394Z,-8.65
2022-11-30T07:19:52.213Z,-8.73
2022-11-30T07:21:54.771Z,-8.75
2022-11-30T07:24:16.013Z,-8.81
2022-11-30T07:26:18.930Z,-8.89
2022-11-30T07:28:21.925Z,-8.90
2022-11-30T07:30:24.775Z,-8.95
2022-11-30T07:32:27.692Z,-9.01
2022-11-30T07:34:30.349Z,-9.02
2022-11-30T07:36:35.063Z,-9.11
2022-11-30T07:38:38.164Z,-9.02
2022-11-30T07:40:40.921Z,-9.02
2022-11-30T07:42:43.645Z,-8.93
2022-11-30T07:44:46.641Z,-8.80
2022-11-30T07:46:49.474Z,-8.79
2022-11-30T07:48:52.672Z,-8.79
2022-11-30T07:51:01.513Z,-8.66
2022-11-30T07:53:04.188Z,-8.66
2022-11-30T07:55:07.591Z,-8.59
2022-11-30T07:57:10.154Z,-8.60
2022-11-30T07:59:12.850Z,-8.52
2022-11-30T08:01:22.047Z,-8.30
2022-11-30T08:03:25.248Z,-8.19
2022-11-30T08:05:28.492Z,-8.23
2022-11-30T08:07:31.667Z,-8.18
2022-11-30T08:09:35.436Z,-8.27
2022-11-30T08:11:39.120Z,-8.32
2022-11-30T08:13:42.741Z,-8.44
2022-11-30T08:15:45.757Z,-8.36
2022-11-30T08:17:50.367Z,-8.31
2022-11-30T08:19:53.457Z,-8.24
2022-11-30T08:21:56.481Z,-8.22
2022-11-30T08:23:59.522Z,-8.09
2022-11-30T08:26:28.044Z,-8.02
2022-11-30T08:28:31.201Z,-8.35
2022-11-30T08:30:34.288Z,-8.34
2022-11-30T08:32:37.295Z,-8.35
2022-11-30T08:34:40.272Z,-8.45
2022-11-30T08:36:47.105Z,-8.57
2022-11-30T08:38:53.355Z,-8.49
2022-11-30T08:40:58.694Z,-8.38
2022-11-30T08:43:01.429Z,-8.38
2022-11-30T08:45:04.513Z,-8.36
2022-11-30T08:47:07.644Z,-8.50
2022-11-30T08:49:21.529Z,-8.49
2022-11-30T08:51:25.097Z,-8.69
2022-11-30T08:53:27.888Z,-8.85
2022-11-30T08:55:30.528Z,-8.95
2022-11-30T08:57:33.843Z,-9.01
2022-11-30T08:59:36.581Z,-8.65
2022-11-30T09:01:39.426Z,-8.43
2022-11-30T09:03:43.281Z,-8.36
2022-11-30T09:05:45.923Z,-8.25
2022-11-30T09:07:48.615Z,-8.14
2022-11-30T09:09:51.299Z,-8.05
2022-11-30T09:11:53.944Z,-7.94
2022-11-30T09:13:58.541Z,-8.00
2022-11-30T09:16:01.267Z,-7.98
2022-11-30T09:18:04.068Z,-7.96
2022-11-30T09:20:07.912Z,-7.91
2022-11-30T09:22:10.559Z,-7.88
2022-11-30T09:24:13.191Z,-7.96
2022-11-30T09:26:18.069Z,-8.03
2022-11-30T09:28:20.666Z,-8.11
2022-11-30T09:30:23.276Z,-8.27
2022-11-30T09:32:26.226Z,-8.25
2022-11-30T09:34:28.885Z,-8.31
2022-11-30T09:36:33.115Z,-8.36
2022-11-30T09:38:36.588Z,-8.39
2022-11-30T09:40:41.914Z,-8.27
2022-11-30T09:42:49.543Z,-8.31
2022-11-30T09:45:09.848Z,-8.35
2022-11-30T09:47:36.330Z,-8.24
2022-11-30T09:49:47.901Z,-8.31
2022-11-30T09:51:52.758Z,-8.33
2022-11-30T09:54:09.043Z,-8.51
2022-11-30T09:56:26.763Z,-8.75
2022-11-30T09:58:48.411Z,-8.80
2022-11-30T10:00:51.080Z,-8.81
2022-11-30T10:02:56.720Z,-8.68
2022-11-30T10:04:59.984Z,-8.63
2022-11-30T10:07:27.298Z,-8.59
2022-11-30T10:09:57.556Z,-8.63
2022-11-30T10:12:26.767Z,-8.79
2022-11-30T10:14:48.107Z,-8.82
2022-11-30T10:17:22.766Z,-8.87
2022-11-30T10:20:02.609Z,-8.89
2022-11-30T10:22:37.097Z,-8.83
2022-11-30T10:25:11.737Z,-8.68
2022-11-30T10:27:44.765Z,-8.63
2022-11-30T10:29:47.430Z,-8.64
2022-11-30T10:31:56.755Z,-8.71
2022-11-30T10:34:15.359Z,-8.66
2022-11-30T10:36:29.808Z,-8.62
2022-11-30T10:38:40.258Z,-8.57
2022-11-30T10:40:58.108Z,-8.58
2022-11-30T10:43:26.979Z,-8.61
2022-11-30T10:45:31.137Z,-8.53
2022-11-30T10:47:37.337Z,-8.42
2022-11-30T10:49:45.556Z,-8.28
2022-11-30T10:51:54.305Z,-8.32
2022-11-30T10:53:58.925Z,-8.47
2022-11-30T10:56:12.706Z,-8.54
2022-11-30T10:58:38.654Z,-8.61
2022-11-30T11:00:50.883Z,-8.65
2022-11-30T11:02:53.868Z,-8.61
2022-11-30T11:05:27.039Z,-8.56
2022-11-30T11:07:32.156Z,-8.58
2022-11-30T11:09:49.269Z,-8.58
2022-11-30T11:11:58.071Z,-8.53
2022-11-30T11:14:23.706Z,-8.56
2022-11-30T11:16:26.632Z,-8.55
2022-11-30T11:18:32.259Z,-8.59
2022-11-30T11:20:39.196Z,-8.56
2022-11-30T11:22:44.240Z,-8.53
2022-11-30T11:24:49.147Z,-8.59
2022-11-30T11:26:53.838Z,-8.84
2022-11-30T11:29:01.123Z,-8.82
2022-11-30T11:31:19.964Z,-8.78
2022-11-30T11:33:29.970Z,-8.80
2022-11-30T11:35:41.817Z,-8.86
2022-11-30T11:37:52.055Z,-8.87
2022-11-30T11:40:16.346Z,-8.87
2022-11-30T11:42:22.463Z,-8.91
2022-11-30T11:44:28.305Z,-9.05
2022-11-30T11:46:33.364Z,-9.07
2022-11-30T11:48:40.796Z,-9.11
2022-11-30T11:51:06.623Z,-9.06
2022-11-30T11:53:23.156Z,-9.07
2022-11-30T11:55:26.033Z,-8.99
2022-11-30T11:57:54.901Z,-9.01
2022-11-30T12:00:05.745Z,-9.05
2022-11-30T12:02:08.824Z,-9.05
2022-11-30T12:04:30.341Z,-9.06
2022-11-30T12:06:35.213Z,-9.11
2022-11-30T12:08:56.898Z,-9.29
2022-11-30T12:11:24.171Z,-9.28
2022-11-30T12:13:34.196Z,-9.29
2022-11-30T12:16:07.853Z,-9.25
2022-11-30T12:18:24.182Z,-9.32
2022-11-30T12:20:34.068Z,-9.50
2022-11-30T12:23:04.740Z,-9.59
2022-11-30T12:25:22.292Z,-9.62
2022-11-30T12:27:53.396Z,-9.63
2022-11-30T12:30:22.544Z,-9.73
2022-11-30T12:32:56.183Z,-9.63
2022-11-30T12:35:17.312Z,-9.58
2022-11-30T12:37:22.890Z,-9.59
2022-11-30T12:40:09.678Z,-9.58
2022-11-30T12:42:30.076Z,-9.53
2022-11-30T12:44:47.567Z,-9.62
2022-11-30T12:47:32.106Z,-9.52
2022-11-30T12:50:18.576Z,-9.46
2022-11-30T12:52:39.170Z,-9.40
2022-11-30T12:55:03.063Z,-9.39
2022-11-30T12:57:18.076Z,-9.40
2022-11-30T12:59:47.813Z,-9.28
2022-11-30T13:02:14.733Z,-9.37
2022-11-30T13:04:38.905Z,-9.39
2022-11-30T13:06:53.877Z,-9.42
2022-11-30T13:09:30.887Z,-9.41
2022-11-30T13:11:42.016Z,-9.41
2022-11-30T13:13:59.201Z,-9.38
2022-11-30T13:16:06.313Z,-9.41
2022-11-30T13:18:16.512Z,-9.31
2022-11-30T13:20:45.448Z,-9.26
2022-11-30T13:23:05.765Z,-9.22
2022-11-30T13:26:05.817Z,-9.21
2022-11-30T13:28:34.348Z,-9.21
2022-11-30T13:30:48.610Z,-9.16
2022-11-30T13:32:59.202Z,-9.24
2022-11-30T13:35:29.723Z,-9.18
2022-11-30T13:37:33.379Z,-9.16
2022-11-30T13:39:50.903Z,-9.17
2022-11-30T13:42:02.489Z,-9.16
2022-11-30T13:44:05.580Z,-9.14
2022-11-30T13:46:18.166Z,-9.13
2022-11-30T13:48:38.213Z,-9.12
2022-11-30T13:50:41.364Z,-9.09
2022-11-30T13:52:59.414Z,-9.07
2022-11-30T13:55:34.234Z,-9.05
2022-11-30T13:57:56.643Z,-9.05
2022-11-30T14:00:01.879Z,-9.07
2022-11-30T14:02:33.869Z,-9.06
2022-11-30T14:04:46.177Z,-9.02
2022-11-30T14:06:50.988Z,-9.02
2022-11-30T14:08:53.613Z,-9.06
2022-11-30T14:11:34.316Z,-9.18
2022-11-30T14:13:37.022Z,-9.10
2022-11-30T14:15:39.502Z,-9.15
2022-11-30T14:17:42.239Z,-9.19
2022-11-30T14:19:52.168Z,-9.19
2022-11-30T14:21:55.560Z,-9.12
2022-11-30T14:24:29.497Z,-9.10
2022-11-30T14:26:42.794Z,-9.11
2022-11-30T14:29:09.841Z,-9.09
2022-11-30T14:31:18.661Z,-9.08
2022-11-30T14:33:38.635Z,-9.20
2022-11-30T14:35:43.387Z,-9.41
2022-11-30T14:37:54.442Z,-9.50
2022-11-30T14:40:03.131Z,-9.60
2022-11-30T14:42:06.885Z,-9.65
2022-11-30T14:44:15.710Z,-9.77
2022-11-30T14:46:18.592Z,-9.73
2022-11-30T14:48:22.304Z,-9.79
2022-11-30T14:50:26.951Z,-9.83
2022-11-30T14:52:32.285Z,-9.79
2022-11-30T14:54:46.046Z,-9.81
2022-11-30T14:56:52.881Z,-9.89
2022-11-30T14:59:03.895Z,-10.07
2022-11-30T15:01:21.460Z,-10.02
2022-11-30T15:03:27.889Z,-9.94
2022-11-30T15:05:31.229Z,-9.88
2022-11-30T15:07:37.238Z,-9.87
2022-11-30T15:09:43.948Z,-9.79
2022-11-30T15:11:48.886Z,-9.86
2022-11-30T15:13:54.516Z,-9.90
2022-11-30T15:15:57.215Z,-10.02
2022-11-30T15:18:14.379Z,-10.04
2022-11-30T15:20:40.363Z,-10.05
2022-11-30T15:22:42.976Z,-9.96
2022-11-30T15:24:45.790Z,-9.86
2022-11-30T15:26:54.816Z,-9.75
2022-11-30T15:29:07.659Z,-9.70
2022-11-30T15:31:15.040Z,-9.71
2022-11-30T15:33:20.541Z,-9.65
2022-11-30T15:35:34.348Z,-9.65
2022-11-30T15:37:49.177Z,-9.66
2022-11-30T15:39:55.837Z,-9.67
2022-11-30T15:42:01.548Z,-9.64
2022-11-30T15:44:04.292Z,-9.60
2022-11-30T15:46:07.546Z,-9.54
2022-11-30T15:48:36.433Z,-9.60
2022-11-30T15:50:40.516Z,-9.58
2022-11-30T15:52:45.070Z,-9.63
2022-11-30T15:54:52.948Z,-9.59
2022-11-30T15:56:57.735Z,-9.62
2022-11-30T15:59:25.459Z,-9.58
2022-11-30T16:01:28.871Z,-9.55
2022-11-30T16:03:52.375Z,-9.57
2022-11-30T16:06:00.652Z,-9.69
2022-11-30T16:08:03.931Z,-9.88
2022-11-30T16:10:15.927Z,-9.94
2022-11-30T16:12:29.659Z,-10.03
2022-11-30T16:14:32.285Z,-10.06
2022-11-30T16:16:35.090Z,-10.12
2022-11-30T16:18:37.786Z,-10.19
2022-11-30T16:20:44.240Z,-10.26
2022-11-30T16:22:48.096Z,-10.22
2022-11-30T16:24:50.809Z,-10.23
2022-11-30T16:26:53.524Z,-10.21
2022-11-30T16:28:57.907Z,-10.23
2022-11-30T16:31:01.023Z,-10.28
2022-11-30T16:33:03.884Z,-10.27
2022-11-30T16:35:20.969Z,-10.29
2022-11-30T16:37:23.623Z,-10.27
2022-11-30T16:39:26.809Z,-10.23
2022-11-30T16:41:29.941Z,-10.24
2022-11-30T16:43:33.973Z,-10.21
2022-11-30T16:45:38.574Z,-10.19
2022-11-30T16:47:42.688Z,-10.18
2022-11-30T16:49:45.635Z,-10.16
2022-11-30T16:51:48.617Z,-10.16
2022-11-30T16:53:51.416Z,-10.23
2022-11-30T16:55:54.071Z,-10.27
2022-11-30T16:57:56.771Z,-10.33
2022-11-30T16:59:59.411Z,-10.37
2022-11-30T17:02:02.154Z,-10.48
2022-11-30T17:04:10.755Z,-10.52
2022-11-30T17:06:22.253Z,-10.44
2022-11-30T17:08:25.195Z,-10.34
2022-11-30T17:10:28.142Z,-10.33
2022-11-30T17:12:31.036Z,-10.27
2022-11-30T17:14:33.642Z,-10.31
2022-11-30T17:16:36.433Z,-10.27
2022-11-30T17:18:39.184Z,-10.27
2022-11-30T17:20:42.060Z,-10.30
2022-11-30T17:22:45.524Z,-10.28
2022-11-30T17:24:48.411Z,-10.29
2022-11-30T17:26:51.268Z,-10.21
2022-11-30T17:28:54.005Z,-10.20
2022-11-30T17:30:56.682Z,-10.15
2022-11-30T17:32:59.344Z,-10.07
2022-11-30T17:35:02.054Z,-10.03
2022-11-30T17:37:06.204Z,-10.03
2022-11-30T17:39:09.705Z,-10.16
2022-11-30T17:41:19.604Z,-10.21
2022-11-30T17:43:22.969Z,-10.35
2022-11-30T17:45:25.562Z,-10.45
2022-11-30T17:47:28.190Z,-10.61
2022-11-30T17:49:30.772Z,-10.69
2022-11-30T17:51:33.601Z,-10.75
2022-11-30T17:53:38.598Z,-10.68
2022-11-30T17:55:41.325Z,-10.63
2022-11-30T17:57:43.982Z,-10.56
2022-11-30T17:59:46.531Z,-10.48
2022-11-30T18:01:49.186Z,-10.55
2022-11-30T18:03:53.353Z,-10.50
2022-11-30T18:06:02.873Z,-10.64
2022-11-30T18:08:05.519Z,-10.51
2022-11-30T18:10:09.604Z,-10.47
2022-11-30T18:12:13.369Z,-10.58
2022-11-30T18:14:16.084Z,-10.56
2022-11-30T18:16:22.940Z,-10.56
2022-11-30T18:18:25.577Z,-10.52
2022-11-30T18:20:29.454Z,-10.43
2022-11-30T18:22:33.028Z,-10.42
2022-11-30T18:24:35.650Z,-10.46
2022-11-30T18:26:39.103Z,-10.60
2022-11-30T18:28:42.337Z,-10.69
2022-11-30T18:30:45.106Z,-10.64
2022-11-30T18:32:47.912Z,-10.68
2022-11-30T18:34:50.666Z,-10.79
2022-11-30T18:36:53.425Z,-10.79
2022-11-30T18:38:56.191Z,-10.81
2022-11-30T18:40:59.075Z,-10.79
2022-11-30T18:43:01.705Z,-10.74
2022-11-30T18:45:04.839Z,-10.71
2022-11-30T18:47:07.476Z,-10.73
2022-11-30T18:49:10.241Z,-10.75
2022-11-30T18:51:18.198Z,-10.59
2022-11-30T18:53:20.855Z,-10.60
2022-11-30T18:55:24.734Z,-10.58
2022-11-30T18:57:27.411Z,-10.53
2022-11-30T18:59:29.995Z,-10.46
2022-11-30T19:01:33.506Z,-10.38
2022-11-30T19:03:37.208Z,-10.36
2022-11-30T19:05:40.993Z,-10.30
2022-11-30T19:07:43.641Z,-10.27
2022-11-30T19:09:46.425Z,-10.23
2022-11-30T19:11:49.481Z,-10.20
2022-11-30T19:13:56.941Z,-10.21
2022-11-30T19:16:08.128Z,-10.20
2022-11-30T19:18:11.757Z,-10.21
2022-11-30T19:20:14.684Z,-10.27
2022-11-30T19:22:17.209Z,-10.26
2022-11-30T19:24:19.867Z,-10.28
2022-11-30T19:26:22.469Z,-10.27
2022-11-30T19:28:25.051Z,-10.23
2022-11-30T19:30:27.851Z,-10.27
2022-11-30T19:32:30.451Z,-10.26
2022-11-30T19:34:33.024Z,-10.25
2022-11-30T19:36:35.928Z,-10.23
2022-11-30T19:38:38.687Z,-10.23
2022-11-30T19:40:41.220Z,-10.30
2022-11-30T19:42:43.745Z,-10.30
2022-11-30T19:44:46.750Z,-10.28
2022-11-30T19:46:50.542Z,-10.28
2022-11-30T19:48:57.970Z,-10.26
2022-11-30T19:51:07.996Z,-10.35
2022-11-30T19:53:11.907Z,-10.31
2022-11-30T19:55:14.506Z,-10.28
2022-11-30T19:57:17.056Z,-10.29
2022-11-30T19:59:19.747Z,-10.28
2022-11-30T20:01:24.841Z,-10.33
2022-11-30T20:03:27.649Z,-10.32
2022-11-30T20:05:30.696Z,-10.34
2022-11-30T20:07:34.905Z,-10.34
2022-11-30T20:09:37.551Z,-10.32
2022-11-30T20:11:40.351Z,-10.33
2022-11-30T20:13:44.057Z,-10.35
2022-11-30T20:15:46.670Z,-10.35
2022-11-30T20:17:49.301Z,-10.39
2022-11-30T20:19:51.925Z,-10.36
2022-11-30T20:21:54.587Z,-10.39
2022-11-30T20:23:59.445Z,-10.38
2022-11-30T20:26:02.038Z,-10.39
2022-11-30T20:28:09.631Z,-10.41
2022-11-30T20:30:14.997Z,-10.44
2022-11-30T20:32:18.155Z,-10.51
2022-11-30T20:34:20.889Z,-10.53
2022-11-30T20:36:23.589Z,-10.54
2022-11-30T20:38:26.142Z,-10.60
2022-11-30T20:40:28.688Z,-10.54
2022-11-30T20:42:31.323Z,-10.57
2022-11-30T20:44:33.936Z,-10.57
2022-11-30T20:46:36.989Z,-10.57
2022-11-30T20:48:39.808Z,-10.59
2022-11-30T20:50:43.818Z,-10.64
2022-11-30T20:52:50.713Z,-10.64
2022-11-30T20:54:53.348Z,-10.72
2022-11-30T20:56:57.434Z,-10.71
2022-11-30T20:59:06.115Z,-10.75
2022-11-30T21:01:17.549Z,-10.77
2022-11-30T21:03:20.077Z,-10.80
2022-11-30T21:05:22.635Z,-10.81
2022-11-30T21:07:25.237Z,-10.89
2022-11-30T21:09:27.897Z,-10.84
2022-11-30T21:11:31.215Z,-10.87
2022-11-30T21:13:34.909Z,-10.87
2022-11-30T21:15:37.590Z,-10.85
2022-11-30T21:17:40.237Z,-10.90
2022-11-30T21:19:42.791Z,-10.90
2022-11-30T21:21:45.379Z,-10.91
2022-11-30T21:23:49.384Z,-10.91
2022-11-30T21:25:51.984Z,-10.89
2022-11-30T21:27:54.603Z,-10.92
2022-11-30T21:29:57.348Z,-10.90
2022-11-30T21:31:59.998Z,-10.91
2022-11-30T21:34:03.053Z,-10.94
2022-11-30T21:36:07.867Z,-10.92
2022-11-30T21:38:10.411Z,-10.97
2022-11-30T21:40:13.256Z,-10.93
2022-11-30T21:42:15.841Z,-10.89
2022-11-30T21:44:18.740Z,-10.97
2022-11-30T21:46:21.945Z,-10.98
2022-11-30T21:48:24.713Z,-11.01
2022-11-30T21:50:27.549Z,-11.01
2022-11-30T21:52:30.173Z,-10.99
2022-11-30T21:54:32.680Z,-10.97
2022-11-30T21:56:38.367Z,-10.98
2022-11-30T21:58:42.639Z,-10.98
2022-11-30T22:00:45.206Z,-10.99
2022-11-30T22:02:48.763Z,-11.01
2022-11-30T22:04:51.413Z,-11.01
2022-11-30T22:06:53.991Z,-11.02
2022-11-30T22:09:03.236Z,-11.03
2022-11-30T22:11:11.850Z,-11.05
2022-11-30T22:13:14.434Z,-11.08
2022-11-30T22:15:17.104Z,-11.10
2022-11-30T22:17:19.825Z,-11.11
2022-11-30T22:19:22.491Z,-11.13
2022-11-30T22:21:27.487Z,-11.10
2022-11-30T22:23:30.147Z,-11.09
2022-11-30T22:25:32.689Z,-11.10
2022-11-30T22:27:37.004Z,-11.10
2022-11-30T22:29:39.602Z,-11.14
2022-11-30T22:31:44.943Z,-11.16
2022-11-30T22:33:48.466Z,-11.13
2022-11-30T22:35:51.253Z,-11.13
2022-11-30T22:37:54.923Z,-11.15
2022-11-30T22:39:57.649Z,-11.12
2022-11-30T22:42:00.206Z,-11.10
2022-11-30T22:44:03.049Z,-11.06
2022-11-30T22:46:11.539Z,-11.11
2022-11-30T22:48:14.119Z,-11.12
2022-11-30T22:50:16.753Z,-11.16
2022-11-30T22:52:28.096Z,-11.17
2022-11-30T22:54:39.148Z,-11.18
2022-11-30T22:56:41.998Z,-11.17
2022-11-30T22:58:47.277Z,-11.18
2022-11-30T23:00:49.953Z,-11.23
2022-11-30T23:02:52.559Z,-11.15
2022-11-30T23:04:55.230Z,-11.19
2022-11-30T23:06:58.067Z,-11.20
2022-11-30T23:09:00.916Z,-11.20
2022-11-30T23:11:07.167Z,-11.19
2022-11-30T23:13:09.717Z,-11.19
2022-11-30T23:15:12.196Z,-11.20
2022-11-30T23:17:14.821Z,-11.30
2022-11-30T23:19:18.313Z,-11.31
2022-11-30T23:21:28.325Z,-11.31
2022-11-30T23:23:32.461Z,-11.32
2022-11-30T23:25:34.962Z,-11.31
2022-11-30T23:27:37.569Z,-11.31
2022-11-30T23:29:40.607Z,-11.34
2022-11-30T23:31:44.518Z,-11.36
2022-11-30T23:33:48.142Z,-11.41
2022-11-30T23:35:50.754Z,-11.43
2022-11-30T23:37:53.334Z,-11.40
2022-11-30T23:39:55.888Z,-11.44
2022-11-30T23:41:58.532Z,-11.49
2022-11-30T23:44:01.924Z,-11.49
2022-11-30T23:46:06.311Z,-11.49
2022-11-30T23:48:10.449Z,-11.50
2022-11-30T23:50:13.062Z,-11.52
2022-11-30T23:52:15.559Z,-11.53
2022-11-30T23:54:18.224Z,-11.52
2022-11-30T23:56:22.375Z,-11.50
2022-11-30T23:58:24.874Z,-11.50
